Flight Track Log - Related Links

Times and Time Zones

All times are in EDT time to prevent confusion due to time zone crossing. See the AWE1227 flight status page for this flight to view local times or setup timezone preferences in your user account.

Time Position Orientation Groundspeed Altitude Reporting Facility
EDT Latitude Longitude Course Direction KTS MPH feet Rate Location/Type
Fri 06:07:15 AM 33.6410 -84.3785 278° West  Level FlightAware Approximate
Fri 06:08:15 AM 33.7236 -84.1984 255° West  Level FlightAware Approximate
Fri 06:08:51 AM 33.6556 -84.5081 288° West 420 483 4,700  Level Atlanta Center
Fri 06:09:35 AM 33.6667 -84.5500 69° East 242 278 6,200 2,567 Climbing Atlanta TRACON
Fri 06:11:51 AM 33.7228 -84.3761 94° East 316 364 12,400 2,376 Climbing Atlanta Center
Fri 06:12:52 AM 33.7147 -84.2486 87° East 361 415 14,000 2,033 Climbing Atlanta Center
Fri 06:13:52 AM 33.7211 -84.1161 71° East 388 447 16,500 2,420 Climbing Atlanta Center
Fri 06:14:51 AM 33.7586 -83.9814 72° East 404 465 18,800 2,400 Climbing Atlanta Center
Fri 06:15:52 AM 33.7961 -83.8414 71° East 427 491 21,300 2,350 Climbing Atlanta Center
Fri 06:16:51 AM 33.8314 -83.7186 72° East 427 491 23,500 1,866 Climbing Atlanta Center
Fri 06:17:51 AM 33.8686 -83.5783 71° East 427 491 25,000 750 Climbing Atlanta Center
Fri 06:18:51 AM 33.9075 -83.4406 72° East 427 491 25,000  Level Atlanta Center
Fri 06:19:52 AM 33.9483 -83.2850 71° East 458 527 25,000  Level Atlanta Center
Fri 06:20:51 AM 33.9914 -83.1344 73° East 470 541 25,000  Level Atlanta Center
Fri 06:21:51 AM 34.0297 -82.9811 71° East 475 547 25,000  Level Atlanta Center
Fri 06:22:51 AM 34.0742 -82.8275 72° East 481 554 25,000 -496 Level Atlanta Center
Fri 06:23:52 AM 34.1183 -82.6611 72° East 481 554 24,000 -496 Descending Atlanta Center
Fri 06:24:52 AM 34.1544 -82.5225 73° East 481 554 24,000  Level Atlanta Center
Fri 06:25:52 AM 34.1942 -82.3686 72° East 481 554 24,000 -504 Level Atlanta Center
Fri 06:26:51 AM 34.2356 -82.2122 57° Northeast 481 554 23,000 -2,250 Descending Atlanta Center
Fri 06:27:52 AM 34.3047 -82.0825 46° Northeast 459 528 19,500 -3,150 Descending Atlanta Center
Fri 06:28:51 AM 34.3883 -81.9772 46° Northeast 438 504 16,700 -2,723 Descending Atlanta Center
Fri 06:29:51 AM 34.4722 -81.8719 46° Northeast 433 498 14,100 -2,281 Descending Atlanta Center
Fri 06:30:52 AM 34.5497 -81.7742 47° Northeast 420 483 12,100 -1,050 Descending Atlanta Center
Fri 06:31:51 AM 34.6231 -81.6786 43° Northeast 398 458 12,000 -50 Descending Atlanta Center
Fri 06:32:51 AM 34.7028 -81.5881 48° Northeast 392 451 12,000  Level Atlanta Center
Fri 06:33:49 AM 34.7656 -81.5028 46° Northeast 324 373 12,000 -252 Level Atlanta Center
Fri 06:34:50 AM 34.8306 -81.4197 46° Northeast 315 362 11,500 -942 Descending Atlanta Center
Fri 06:35:50 AM 34.8894 -81.3444 46° Northeast 312 359 10,100 -738 Descending Atlanta Center
Fri 06:36:52 AM 34.9403 -81.2794 47° Northeast 297 342 10,000 -50 Descending Atlanta Center
Fri 06:37:51 AM 34.9950 -81.2067 47° Northeast 291 335 10,000 -50 Level Atlanta Center
Fri 06:38:52 AM 35.0497 -81.1339 47° Northeast 273 314 9,900 -496 Descending Atlanta Center
Fri 06:39:52 AM 35.0961 -81.0736 North 248 285 9,000 -450 Descending Atlanta Center
Fri 06:40:52 AM 35.1522 -81.0642 356° North 213 245 9,000 -256 Level Atlanta Center
Fri 06:41:49 AM 35.2128 -81.0697 25° Northeast 213 245 8,500 -864 Descending Atlanta Center
Fri 06:42:50 AM 35.2644 -81.0397 54° Northeast 233 268 7,300 -776 Descending Atlanta Center
Fri 06:43:45 AM 35.2964 -80.9853 55° Northeast 234 269 7,000 -155 Descending Atlanta Center
Fri 06:44:46 AM 35.3344 -80.9175 53° Northeast 235 270 7,000 -149 Level Atlanta Center
Fri 06:45:46 AM 35.3764 -80.8497 52° Northeast 236 272 6,700 -694 Descending Atlanta Center
Fri 06:46:47 AM 35.4164 -80.7869 49° Northeast 229 264 5,600 -836 Descending Atlanta Center
Fri 06:47:48 AM 35.4547 -80.7319 59° Northeast 222 255 5,000 -295 Descending Atlanta Center
Fri 06:48:49 AM 35.4864 -80.6669 131° Southeast 226 260 5,000  Level Atlanta Center
Fri 06:49:49 AM 35.4514 -80.6175 229° Southwest 195 224 5,000 -99 Level Atlanta Center
Fri 06:50:50 AM 35.4214 -80.6594 228° Southwest 175 201 4,800 -492 Descending Atlanta Center
Fri 06:51:51 AM 35.3853 -80.7092 229° Southwest 175 201 4,000 -393 Descending Atlanta Center
Fri 06:52:52 AM 35.3531 -80.7539 229° Southwest 176 203 4,000 -209 Level Atlanta Center
Fri 06:53:46 AM 35.3228 -80.7958 229° Southwest 178 205 3,600 -444 Descending Atlanta Center

Login

Don't have an account? Register now (free) for customized features, flight alerts, and more!